Flight Track Log - Related Links

Times and Time Zones

All times are in EST time to prevent confusion due to time zone crossing. See the THY2854 flight status page for this flight to view local times or setup timezone preferences in your user account.

Time Position Orientation Groundspeed Altitude Reporting Facility
EST Latitude Longitude Course Direction KTS MPH feet Rate Location/Type
Tue 03:41:00 PM 40.9790 30.0127 89° East  Level Estimated
Tue 03:42:00 PM 40.9784 30.1616 90° East  Level Estimated
Tue 03:43:00 PM 40.9776 30.3106 90° East  Level Estimated
Tue 03:44:00 PM 40.9767 30.4595 90° East  Level Estimated
Tue 03:45:00 PM 40.9755 30.6084 91° East  Level Estimated
Tue 03:46:00 PM 40.9741 30.7574 91° East  Level Estimated
Tue 03:47:00 PM 40.9726 30.9063 91° East  Level Estimated
Tue 03:48:00 PM 40.9708 31.0552 91° East  Level Estimated
Tue 03:49:00 PM 40.9689 31.2041 91° East  Level Estimated
Tue 03:50:00 PM 40.9668 31.3530 91° East  Level Estimated
Tue 03:51:00 PM 40.9644 31.5019 91° East  Level Estimated
Tue 03:52:00 PM 40.9619 31.6508 91° East  Level Estimated
Tue 03:53:00 PM 40.9592 31.7996 91° East  Level Estimated
Tue 03:54:00 PM 40.9563 31.9485 91° East  Level Estimated
Tue 03:55:00 PM 40.9532 32.0973 92° East  Level Estimated
Tue 03:56:00 PM 40.9500 32.2462 92° East  Level Estimated
Tue 03:57:00 PM 40.9465 32.3950 92° East  Level Estimated
Tue 03:58:00 PM 40.9428 32.5438 92° East  Level Estimated
Tue 03:59:00 PM 40.9390 32.6925 92° East  Level Estimated
Tue 04:00:00 PM 40.9349 32.8413 92° East  Level Estimated
Tue 04:01:00 PM 40.9307 32.9900 92° East  Level Estimated
Tue 04:02:00 PM 40.9263 33.1387 92° East  Level Estimated
Tue 04:03:00 PM 40.9216 33.2874 92° East  Level Estimated
Tue 04:04:00 PM 40.9169 33.4361 92° East  Level Estimated
Tue 04:05:00 PM 40.9118 33.5848 92° East  Level Estimated
Tue 04:06:00 PM 40.9067 33.7334 93° East  Level Estimated
Tue 04:07:00 PM 40.9013 33.8820 93° East  Level Estimated
Tue 04:08:00 PM 40.8957 34.0306 93° East  Level Estimated
Tue 04:09:00 PM 40.8899 34.1792 93° East  Level Estimated
Tue 04:10:00 PM 40.8840 34.3277 93° East  Level Estimated
Tue 04:11:00 PM 40.8778 34.4762 93° East  Level Estimated
Tue 04:12:00 PM 40.8715 34.6247 93° East  Level Estimated
Tue 04:13:00 PM 40.8650 34.7731 93° East  Level Estimated
Tue 04:14:00 PM 40.8583 34.9215 93° East  Level Estimated
Tue 04:15:00 PM 40.8514 35.0699 93° East  Level Estimated
Tue 04:16:00 PM 40.8443 35.2183 94° East  Level Estimated
Tue 04:17:00 PM 40.8370 35.3666 94° East  Level Estimated
Tue 04:18:00 PM 40.8295 35.5149 94° East  Level Estimated
Tue 04:19:00 PM 40.8292 35.5219 94° East  Level Estimated
Tue 04:20:00 PM 40.8292 35.5219 North  Level Estimated
Tue 04:21:00 PM 40.8292 35.5219 North  Level Estimated
Tue 04:22:00 PM 40.8292 35.5219 North  Level Estimated
Tue 04:23:00 PM 40.8292 35.5219 North  Level Estimated
Tue 04:24:00 PM 40.8292 35.5219 North  Level Estimated
Tue 04:25:00 PM 40.8292 35.5219 North  Level Estimated
Tue 04:26:00 PM 40.8292 35.5219 North  Level Estimated
Tue 04:27:00 PM 40.8292 35.5219 North  Level Estimated
Tue 04:28:00 PM 40.8292 35.5219 North  Level Estimated
Tue 04:29:00 PM 40.8292 35.5219 North  Level Estimated
Tue 04:30:00 PM 40.8292 35.5219 North  Level Estimated
Tue 04:31:00 PM 40.8292 35.5219 North  Level Estimated
Tue 04:32:00 PM 40.8292 35.5219 North  Level Estimated
Tue 04:33:00 PM 40.8292 35.5219 North  Level Estimated
Tue 04:34:00 PM 40.8292 35.5219 North  Level Estimated

Login

Don't have an account? Register now (free) for customized features, flight alerts, and more!